createdAt,value
2019-04-26T00:01:20.912Z,14.03
2019-04-26T00:03:51.268Z,13.48
2019-04-26T00:06:20.955Z,14.15
2019-04-26T00:09:32.524Z,12.85
2019-04-26T00:12:22.550Z,11.85
2019-04-26T00:15:10.277Z,14.00
2019-04-26T00:17:42.559Z,12.30
2019-04-26T00:20:12.911Z,12.98
2019-04-26T00:22:42.491Z,14.20
2019-04-26T00:25:12.471Z,14.23
2019-04-26T00:27:42.115Z,13.00
2019-04-26T00:30:12.110Z,14.10
2019-04-26T00:32:42.493Z,13.70
2019-04-26T00:35:12.895Z,14.75
2019-04-26T00:37:43.037Z,14.13
2019-04-26T00:40:13.345Z,13.65
2019-04-26T00:42:44.134Z,13.45
2019-04-26T00:45:14.880Z,13.75
2019-04-26T00:47:44.758Z,12.55
2019-04-26T00:50:15.267Z,12.43
2019-04-26T00:52:46.128Z,12.68
2019-04-26T00:55:15.694Z,13.20
2019-04-26T00:57:45.104Z,12.70
2019-04-26T01:00:16.913Z,12.78
2019-04-26T01:02:54.510Z,13.08
2019-04-26T01:05:25.249Z,13.15
2019-04-26T01:07:56.438Z,11.80
2019-04-26T01:10:25.923Z,12.95
2019-04-26T01:12:55.290Z,11.90
2019-04-26T01:15:24.878Z,13.40
2019-04-26T01:17:54.279Z,12.28
2019-04-26T01:20:24.693Z,13.15
2019-04-26T01:22:54.595Z,12.78
2019-04-26T01:25:39.867Z,12.60
2019-04-26T01:28:12.509Z,13.78
2019-04-26T01:30:42.506Z,12.80
2019-04-26T01:33:11.922Z,13.28
2019-04-26T01:35:54.240Z,13.13
2019-04-26T01:38:23.719Z,12.53
2019-04-26T01:40:54.728Z,12.35
2019-04-26T01:43:26.417Z,11.78
2019-04-26T01:46:00.669Z,11.85
2019-04-26T01:48:48.359Z,12.23
2019-04-26T01:51:24.528Z,12.82
2019-04-26T01:53:54.013Z,13.25
2019-04-26T01:56:29.588Z,12.47
2019-04-26T01:58:58.970Z,13.85
2019-04-26T02:01:30.070Z,13.20
2019-04-26T02:03:59.506Z,14.60
2019-04-26T02:06:32.559Z,13.65
2019-04-26T02:08:59.951Z,14.60
2019-04-26T02:11:29.318Z,13.48
2019-04-26T02:13:58.705Z,13.20
2019-04-26T02:16:29.085Z,12.07
2019-04-26T02:18:59.780Z,13.75
2019-04-26T02:21:31.887Z,13.18
2019-04-26T02:24:03.054Z,12.73
2019-04-26T02:26:40.434Z,14.83
2019-04-26T02:29:15.720Z,17.40
2019-04-26T02:31:46.065Z,16.45
2019-04-26T02:34:29.393Z,15.83
2019-04-26T02:37:00.102Z,14.10
2019-04-26T02:39:37.532Z,13.80
2019-04-26T02:42:13.001Z,15.88
2019-04-26T02:44:50.317Z,17.87
2019-04-26T02:47:34.989Z,19.45
2019-04-26T02:50:11.854Z,16.27
2019-04-26T02:52:44.720Z,14.70
2019-04-26T02:55:20.135Z,14.00
2019-04-26T02:57:51.298Z,14.73
2019-04-26T03:00:21.772Z,14.23
2019-04-26T03:02:54.118Z,13.43
2019-04-26T03:05:23.500Z,14.55
2019-04-26T03:07:59.120Z,13.55
2019-04-26T03:10:32.707Z,13.22
2019-04-26T03:13:03.284Z,13.32
2019-04-26T03:18:25.767Z,14.58
2019-04-26T03:20:58.447Z,14.70
2019-04-26T03:23:45.923Z,12.93
2019-04-26T03:26:11.135Z,13.18
2019-04-26T03:28:49.616Z,14.73
2019-04-26T03:31:33.983Z,13.45
2019-04-26T03:34:23.936Z,13.00
2019-04-26T03:37:21.011Z,14.63
2019-04-26T03:39:57.951Z,14.38
2019-04-26T03:42:35.167Z,13.13
2019-04-26T03:45:18.687Z,14.25
2019-04-26T03:47:56.575Z,13.00
2019-04-26T03:50:37.038Z,14.23
2019-04-26T03:53:11.172Z,14.33
2019-04-26T03:55:45.537Z,12.88
2019-04-26T03:58:28.819Z,13.98
2019-04-26T04:01:02.525Z,12.35
2019-04-26T04:03:51.521Z,13.08
2019-04-26T04:06:24.275Z,12.90
2019-04-26T04:08:57.195Z,12.40
2019-04-26T04:11:47.496Z,13.32
2019-04-26T04:14:23.544Z,12.10
2019-04-26T04:17:12.551Z,13.45
2019-04-26T04:20:02.566Z,15.40
2019-04-26T04:23:04.926Z,13.72
2019-04-26T04:25:42.170Z,13.85
2019-04-26T04:28:42.059Z,14.90
2019-04-26T04:31:17.703Z,15.15
2019-04-26T04:33:52.985Z,12.70
2019-04-26T04:36:24.919Z,14.50
2019-04-26T04:39:11.430Z,14.47
2019-04-26T04:41:57.491Z,13.75
2019-04-26T04:45:06.374Z,14.45
2019-04-26T04:47:52.502Z,14.23
2019-04-26T04:50:27.453Z,13.85
2019-04-26T04:53:08.410Z,12.25
2019-04-26T04:55:52.953Z,13.28
2019-04-26T04:58:25.608Z,14.35
2019-04-26T05:01:11.679Z,13.85
2019-04-26T05:03:53.519Z,14.30
2019-04-26T05:06:42.699Z,13.50
2019-04-26T05:09:19.131Z,14.15
2019-04-26T05:11:57.475Z,13.62
2019-04-26T05:14:32.606Z,12.45
2019-04-26T05:17:22.126Z,13.35
2019-04-26T05:20:13.115Z,13.08
2019-04-26T05:22:49.088Z,12.73
2019-04-26T05:26:01.190Z,13.80
2019-04-26T05:28:49.625Z,13.98
2019-04-26T05:31:27.605Z,13.35
2019-04-26T05:34:14.204Z,13.20
2019-04-26T05:37:15.611Z,12.75
2019-04-26T05:40:03.512Z,13.28
2019-04-26T05:43:15.994Z,13.45
2019-04-26T05:45:56.411Z,12.65
2019-04-26T05:48:56.210Z,13.53
2019-04-26T05:52:02.361Z,12.23
2019-04-26T05:54:59.237Z,14.40
2019-04-26T05:57:41.892Z,12.30
2019-04-26T06:00:24.183Z,13.50
2019-04-26T06:03:33.659Z,11.63
2019-04-26T06:06:29.116Z,11.57
2019-04-26T06:09:09.257Z,11.38
2019-04-26T06:11:50.258Z,11.48
2019-04-26T06:14:40.046Z,10.50
2019-04-26T06:17:25.865Z,10.35
2019-04-26T06:20:22.279Z,11.03
2019-04-26T06:23:05.071Z,9.83
2019-04-26T06:26:15.094Z,10.18
2019-04-26T06:28:53.090Z,8.05
2019-04-26T06:31:34.746Z,9.53
2019-04-26T06:34:07.314Z,7.75
2019-04-26T06:36:41.589Z,8.18
2019-04-26T06:39:28.066Z,9.18
2019-04-26T06:42:09.652Z,8.25
2019-04-26T06:45:11.437Z,8.70
2019-04-26T06:47:50.885Z,8.18
2019-04-26T06:50:50.480Z,7.45
2019-04-26T06:53:35.272Z,6.92
2019-04-26T06:56:24.718Z,7.85
2019-04-26T06:59:03.507Z,7.12
2019-04-26T07:01:47.914Z,6.92
2019-04-26T07:04:20.202Z,6.95
2019-04-26T07:06:55.628Z,6.58
2019-04-26T07:09:27.758Z,6.87
2019-04-26T07:12:28.703Z,6.35
2019-04-26T07:15:28.328Z,7.15
2019-04-26T07:17:59.085Z,6.78
2019-04-26T07:20:35.798Z,6.97
2019-04-26T07:23:31.201Z,6.67
2019-04-26T07:26:20.803Z,6.75
2019-04-26T07:29:00.102Z,6.90
2019-04-26T07:34:20.591Z,6.75
2019-04-26T07:37:11.396Z,6.35
2019-04-26T07:40:11.594Z,6.35
2019-04-26T07:43:17.339Z,6.30
2019-04-26T07:46:03.008Z,5.97
2019-04-26T07:48:44.619Z,6.03
2019-04-26T07:51:49.089Z,7.00
2019-04-26T07:54:50.686Z,6.05
2019-04-26T07:57:38.654Z,6.47
2019-04-26T08:00:45.434Z,7.12
2019-04-26T08:03:31.074Z,7.20
2019-04-26T08:06:18.637Z,6.33
2019-04-26T08:08:54.331Z,6.95
2019-04-26T08:11:32.555Z,6.62
2019-04-26T08:14:10.521Z,6.22
2019-04-26T08:16:53.668Z,6.25
2019-04-26T08:19:24.407Z,6.35
2019-04-26T08:21:53.781Z,6.25
2019-04-26T08:27:23.263Z,7.00
2019-04-26T08:29:52.462Z,6.90
2019-04-26T08:32:23.512Z,6.80
2019-04-26T08:34:56.229Z,6.20
2019-04-26T08:37:48.620Z,6.47
2019-04-26T08:40:25.538Z,6.65
2019-04-26T08:42:53.429Z,5.92
2019-04-26T08:45:29.293Z,6.15
2019-04-26T08:48:03.287Z,6.22
2019-04-26T08:50:35.290Z,6.37
2019-04-26T08:53:04.724Z,6.10
2019-04-26T08:55:34.105Z,6.42
2019-04-26T08:58:06.819Z,6.10
2019-04-26T09:00:37.846Z,6.53
2019-04-26T09:03:15.127Z,5.55
2019-04-26T09:05:49.987Z,6.30
2019-04-26T09:08:20.139Z,6.60
2019-04-26T09:10:50.571Z,5.50
2019-04-26T09:13:20.051Z,5.75
2019-04-26T09:16:10.372Z,5.33
2019-04-26T09:21:13.469Z,5.87
2019-04-26T09:23:59.464Z,5.47
2019-04-26T09:26:42.376Z,5.97
2019-04-26T09:29:18.093Z,6.60
2019-04-26T09:31:50.586Z,6.00
2019-04-26T09:34:21.841Z,5.58
2019-04-26T09:36:51.234Z,5.90
2019-04-26T09:39:21.235Z,6.30
2019-04-26T09:41:50.704Z,5.90
2019-04-26T09:44:33.437Z,5.90
2019-04-26T09:47:10.475Z,5.95
2019-04-26T09:49:57.752Z,5.75
2019-04-26T09:52:28.780Z,6.15
2019-04-26T09:54:58.312Z,6.42
2019-04-26T09:57:27.737Z,6.58
2019-04-26T09:59:57.335Z,5.27
2019-04-26T10:02:29.495Z,6.58
2019-04-26T10:04:59.319Z,5.20
2019-04-26T10:07:28.771Z,6.67
2019-04-26T10:10:00.915Z,5.80
2019-04-26T10:12:36.830Z,5.17
2019-04-26T10:15:16.831Z,5.92
2019-04-26T10:17:46.527Z,6.08
2019-04-26T10:20:16.128Z,5.95
2019-04-26T10:22:45.553Z,5.67
2019-04-26T10:25:16.815Z,5.77
2019-04-26T10:27:46.169Z,5.55
2019-04-26T10:30:17.507Z,5.70
2019-04-26T10:32:46.957Z,4.65
2019-04-26T10:35:17.600Z,4.70
2019-04-26T10:37:48.230Z,4.47
2019-04-26T10:40:18.610Z,4.95
2019-04-26T10:42:48.071Z,4.43
2019-04-26T10:45:17.901Z,4.57
2019-04-26T10:47:47.328Z,4.70
2019-04-26T10:50:16.783Z,4.87
2019-04-26T10:52:56.957Z,4.58
2019-04-26T10:55:34.089Z,5.28
2019-04-26T10:58:10.807Z,4.95
2019-04-26T11:00:48.415Z,4.67
2019-04-26T11:03:15.855Z,4.80
2019-04-26T11:05:45.330Z,4.95
2019-04-26T11:08:14.791Z,4.20
2019-04-26T11:10:48.814Z,4.00
2019-04-26T11:13:15.414Z,4.47
2019-04-26T11:15:45.113Z,4.50
2019-04-26T11:18:14.501Z,5.05
2019-04-26T11:20:45.669Z,4.45
2019-04-26T11:23:16.012Z,4.25
2019-04-26T11:25:45.517Z,4.37
2019-04-26T11:28:17.187Z,4.30
2019-04-26T11:30:48.057Z,3.77
2019-04-26T11:33:16.951Z,4.35
2019-04-26T11:35:46.342Z,4.50
2019-04-26T11:38:15.796Z,5.05
2019-04-26T11:40:49.819Z,4.67
2019-04-26T11:43:19.517Z,4.03
2019-04-26T11:45:49.335Z,4.12
2019-04-26T11:48:18.187Z,4.17
2019-04-26T11:50:48.215Z,3.85
2019-04-26T11:53:18.706Z,4.05
2019-04-26T11:55:48.160Z,4.72
2019-04-26T11:58:17.943Z,4.47
2019-04-26T12:00:50.246Z,3.80
2019-04-26T12:03:21.218Z,4.33
2019-04-26T12:06:07.655Z,4.28
2019-04-26T12:08:38.682Z,4.33
2019-04-26T12:11:17.785Z,4.47
2019-04-26T12:13:39.263Z,4.10
2019-04-26T12:16:09.990Z,4.15
2019-04-26T12:18:40.282Z,4.90
2019-04-26T12:21:10.501Z,4.37
2019-04-26T12:23:40.956Z,4.85
2019-04-26T12:26:10.330Z,4.30
2019-04-26T12:28:59.149Z,4.08
2019-04-26T12:31:28.527Z,4.00
2019-04-26T12:33:57.980Z,4.10
2019-04-26T12:36:27.379Z,3.70
2019-04-26T12:38:58.257Z,4.03
2019-04-26T12:41:39.847Z,3.90
2019-04-26T12:44:03.034Z,4.25
2019-04-26T12:46:32.779Z,4.28
2019-04-26T12:49:03.302Z,4.08
2019-04-26T12:51:33.129Z,4.17
2019-04-26T12:54:03.868Z,4.25
2019-04-26T12:56:33.740Z,4.70
2019-04-26T12:59:03.293Z,4.22
2019-04-26T13:01:32.651Z,4.10
2019-04-26T13:04:06.615Z,4.00
2019-04-26T13:06:37.701Z,3.80
2019-04-26T13:09:12.769Z,3.75
2019-04-26T13:11:48.945Z,4.37
2019-04-26T13:14:33.989Z,3.83
2019-04-26T13:17:21.547Z,4.22
2019-04-26T13:19:54.060Z,3.90
2019-04-26T13:22:21.945Z,4.03
2019-04-26T13:24:52.484Z,3.98
2019-04-26T13:27:21.879Z,4.35
2019-04-26T13:30:01.819Z,4.20
2019-04-26T13:32:22.278Z,4.25
2019-04-26T13:34:51.739Z,4.42
2019-04-26T13:37:21.102Z,4.20
2019-04-26T13:39:51.327Z,3.85
2019-04-26T13:42:21.538Z,9.35
2019-04-26T13:44:52.581Z,4.17
2019-04-26T13:47:41.727Z,4.03
2019-04-26T13:50:22.320Z,4.10
2019-04-26T13:52:49.882Z,4.30
2019-04-26T13:55:38.698Z,17.57
2019-04-26T13:58:08.160Z,6.42
2019-04-26T14:00:39.645Z,5.00
2019-04-26T14:03:08.662Z,4.50
2019-04-26T14:05:38.053Z,4.00
2019-04-26T14:08:07.582Z,4.25
2019-04-26T14:10:37.186Z,4.15
2019-04-26T14:13:06.638Z,3.92
2019-04-26T14:15:39.388Z,4.28
2019-04-26T14:18:07.602Z,4.00
2019-04-26T14:20:36.980Z,4.37
2019-04-26T14:23:17.206Z,4.90
2019-04-26T14:26:06.988Z,4.10
2019-04-26T14:28:36.502Z,4.00
2019-04-26T14:31:25.303Z,4.20
2019-04-26T14:33:54.835Z,4.03
2019-04-26T14:36:26.797Z,4.72
2019-04-26T14:39:05.318Z,4.50
2019-04-26T14:41:26.327Z,7.20
2019-04-26T14:43:56.768Z,7.28
2019-04-26T14:46:26.388Z,4.22
2019-04-26T14:49:02.744Z,4.20
2019-04-26T14:51:26.772Z,3.75
2019-04-26T14:53:56.230Z,4.15
2019-04-26T14:56:29.305Z,3.45
2019-04-26T14:58:56.634Z,4.10
2019-04-26T15:01:39.618Z,4.80
2019-04-26T15:04:28.154Z,4.00
2019-04-26T15:06:59.660Z,3.72
2019-04-26T15:09:33.340Z,3.80
2019-04-26T15:12:01.884Z,3.67
2019-04-26T15:14:33.027Z,4.53
2019-04-26T15:17:02.726Z,4.35
2019-04-26T15:27:04.069Z,3.67
2019-04-26T15:29:33.507Z,4.22
2019-04-26T15:32:05.155Z,4.00
2019-04-26T15:34:33.914Z,3.77
2019-04-26T15:37:04.369Z,3.25
2019-04-26T15:39:35.370Z,3.35
2019-04-26T15:42:09.270Z,3.58
2019-04-26T15:44:43.005Z,3.50
2019-04-26T15:47:14.034Z,3.75
2019-04-26T15:49:57.140Z,4.05
2019-04-26T15:52:26.542Z,4.12
2019-04-26T15:54:58.896Z,4.53
2019-04-26T15:57:31.181Z,6.75
2019-04-26T15:59:58.231Z,3.95
2019-04-26T16:02:28.611Z,3.65
2019-04-26T16:04:59.112Z,4.15
2019-04-26T16:07:29.258Z,4.20
2019-04-26T16:12:27.409Z,3.98
2019-04-26T16:14:56.842Z,6.00
2019-04-26T16:17:26.333Z,7.62
2019-04-26T16:19:56.046Z,5.58
2019-04-26T16:22:30.097Z,4.80
2019-04-26T16:24:58.202Z,3.80
2019-04-26T16:27:32.296Z,4.03
2019-04-26T16:30:05.702Z,3.72
2019-04-26T16:32:43.282Z,4.62
2019-04-26T16:35:13.295Z,4.42
2019-04-26T16:37:43.643Z,4.45
2019-04-26T16:40:13.935Z,4.00
2019-04-26T16:42:43.598Z,6.87
2019-04-26T16:45:13.046Z,5.75
2019-04-26T16:47:47.373Z,4.07
2019-04-26T16:50:14.989Z,4.33
2019-04-26T16:52:47.739Z,5.22
2019-04-26T16:57:55.013Z,17.67
2019-04-26T17:00:18.330Z,7.05
2019-04-26T17:00:45.641Z,6.70
2019-04-26T17:02:47.878Z,5.97
2019-04-26T17:05:24.037Z,5.63
2019-04-26T17:07:48.277Z,6.00
2019-04-26T17:10:20.932Z,4.30
2019-04-26T17:12:50.581Z,3.55
2019-04-26T17:15:21.001Z,3.50
2019-04-26T17:17:52.611Z,3.30
2019-04-26T17:20:23.314Z,4.08
2019-04-26T17:23:12.866Z,3.70
2019-04-26T17:26:00.175Z,3.92
2019-04-26T17:28:32.464Z,10.50
2019-04-26T17:31:02.163Z,12.35
2019-04-26T17:33:32.636Z,9.60
2019-04-26T17:36:02.281Z,12.78
2019-04-26T17:38:35.166Z,19.92
2019-04-26T17:41:06.445Z,12.90
2019-04-26T17:43:34.612Z,14.45
2019-04-26T17:46:04.012Z,14.13
2019-04-26T17:48:33.678Z,11.77
2019-04-26T17:51:03.174Z,10.23
2019-04-26T17:53:33.725Z,10.83
2019-04-26T17:56:03.279Z,9.68
2019-04-26T17:58:34.447Z,11.80
2019-04-26T18:01:04.310Z,8.73
2019-04-26T18:03:33.777Z,7.45
2019-04-26T18:06:03.278Z,6.40
2019-04-26T18:08:40.672Z,7.93
2019-04-26T18:11:03.835Z,7.35
2019-04-26T18:13:33.218Z,6.33
2019-04-26T18:16:03.610Z,6.07
2019-04-26T18:18:53.598Z,5.10
2019-04-26T18:21:35.928Z,5.28
2019-04-26T18:24:06.110Z,6.10
2019-04-26T18:29:04.439Z,5.50
2019-04-26T18:31:33.890Z,5.28
2019-04-26T18:34:04.180Z,5.00
2019-04-26T18:36:36.197Z,5.50
2019-04-26T18:39:07.750Z,5.55
2019-04-26T18:41:37.750Z,6.22
2019-04-26T18:44:07.134Z,5.17
2019-04-26T18:46:40.478Z,4.53
2019-04-26T18:49:11.501Z,5.10
2019-04-26T18:51:43.373Z,5.70
2019-04-26T18:54:32.853Z,6.40
2019-04-26T18:57:03.272Z,5.90
2019-04-26T18:59:34.185Z,7.20
2019-04-26T19:02:04.045Z,7.42
2019-04-26T19:04:33.691Z,8.08
2019-04-26T19:07:03.092Z,6.83
2019-04-26T19:09:45.285Z,7.63
2019-04-26T19:12:05.056Z,7.67
2019-04-26T19:14:48.542Z,8.75
2019-04-26T19:17:14.524Z,9.10
2019-04-26T19:20:02.095Z,8.55
2019-04-26T19:22:32.230Z,8.10
2019-04-26T19:25:02.917Z,9.23
2019-04-26T19:27:33.287Z,8.20
2019-04-26T19:35:07.018Z,9.25
2019-04-26T19:37:37.052Z,8.50
2019-04-26T19:40:09.075Z,8.30
2019-04-26T19:42:57.033Z,8.45
2019-04-26T19:45:32.833Z,8.30
2019-04-26T19:48:06.666Z,8.83
2019-04-26T19:50:48.487Z,9.25
2019-04-26T19:53:17.696Z,9.20
2019-04-26T19:56:03.788Z,8.83
2019-04-26T19:58:34.893Z,9.60
2019-04-26T20:01:04.492Z,9.33
2019-04-26T20:03:34.053Z,10.10
2019-04-26T20:06:05.022Z,10.17
2019-04-26T20:08:41.467Z,9.00
2019-04-26T20:11:05.599Z,9.55
2019-04-26T20:16:06.291Z,9.88
2019-04-26T20:18:38.862Z,11.45
2019-04-26T20:21:12.550Z,11.20
2019-04-26T20:23:42.939Z,12.18
2019-04-26T20:26:09.404Z,10.70
2019-04-26T20:28:38.785Z,11.60
2019-04-26T20:31:12.764Z,12.03
2019-04-26T20:33:42.463Z,12.53
2019-04-26T20:36:11.914Z,10.53
2019-04-26T20:38:45.633Z,11.63
2019-04-26T20:41:14.431Z,11.63
2019-04-26T20:43:46.865Z,10.90
2019-04-26T20:46:15.690Z,11.68
2019-04-26T20:48:45.246Z,11.45
2019-04-26T20:51:14.786Z,11.60
2019-04-26T20:53:44.278Z,11.87
2019-04-26T20:56:18.305Z,11.80
2019-04-26T20:58:47.083Z,10.25
2019-04-26T21:01:17.038Z,10.55
2019-04-26T21:03:46.505Z,10.38
2019-04-26T21:06:15.947Z,11.50
2019-04-26T21:08:45.406Z,10.82
2019-04-26T21:11:14.870Z,10.55
2019-04-26T21:13:44.321Z,10.55
2019-04-26T21:16:15.494Z,11.20
2019-04-26T21:18:44.785Z,11.05
2019-04-26T21:21:16.042Z,11.43
2019-04-26T21:23:46.878Z,11.25
2019-04-26T21:26:36.039Z,11.25
2019-04-26T21:29:20.077Z,10.23
2019-04-26T21:31:47.115Z,9.40
2019-04-26T21:34:19.325Z,9.10
2019-04-26T21:36:53.437Z,8.65
2019-04-26T21:39:39.389Z,8.45
2019-04-26T21:42:11.986Z,7.87
2019-04-26T21:44:44.630Z,7.78
2019-04-26T21:47:13.493Z,8.18
2019-04-26T21:52:13.683Z,7.42
2019-04-26T21:54:43.290Z,7.20
2019-04-26T22:00:10.818Z,5.70
2019-04-26T22:02:42.978Z,6.12
2019-04-26T22:05:14.616Z,5.55
2019-04-26T22:07:44.739Z,5.50
2019-04-26T22:10:16.284Z,5.17
2019-04-26T22:12:45.734Z,5.80
2019-04-26T22:15:16.726Z,5.75
2019-04-26T22:17:47.830Z,6.17
2019-04-26T22:20:24.887Z,6.12
2019-04-26T22:23:11.532Z,5.50
2019-04-26T22:25:40.716Z,6.97
2019-04-26T22:28:10.085Z,7.28
2019-04-26T22:30:39.471Z,6.97
2019-04-26T22:33:08.862Z,7.95
2019-04-26T22:35:38.226Z,7.12
2019-04-26T22:38:07.621Z,7.47
2019-04-26T22:40:37.011Z,7.15
2019-04-26T22:43:10.800Z,7.70
2019-04-26T22:45:44.128Z,7.75
2019-04-26T22:48:19.413Z,7.20
2019-04-26T22:50:45.357Z,7.78
2019-04-26T22:53:14.738Z,8.60
2019-04-26T22:55:44.175Z,9.63
2019-04-26T22:58:13.592Z,8.50
2019-04-26T23:00:43.636Z,9.23
2019-04-26T23:03:14.864Z,9.60
2019-04-26T23:05:44.250Z,11.15
2019-04-26T23:08:13.857Z,10.20
2019-04-26T23:10:44.962Z,10.73
2019-04-26T23:13:33.856Z,10.15
2019-04-26T23:16:17.038Z,11.18
2019-04-26T23:18:56.990Z,12.68
2019-04-26T23:21:31.203Z,13.70
2019-04-26T23:24:00.598Z,15.15
2019-04-26T23:26:30.034Z,16.75
2019-04-26T23:28:59.420Z,17.10
2019-04-26T23:31:28.785Z,16.12
2019-04-26T23:33:58.174Z,17.67
2019-04-26T23:36:27.566Z,17.85
2019-04-26T23:38:56.926Z,16.80
2019-04-26T23:41:26.318Z,17.25
2019-04-26T23:44:02.518Z,17.35
2019-04-26T23:46:26.689Z,17.52
2019-04-26T23:48:56.077Z,17.07
2019-04-26T23:51:26.270Z,18.32
2019-04-26T23:53:57.751Z,17.23
2019-04-26T23:56:26.791Z,17.02
2019-04-26T23:58:56.169Z,17.70
